Time;durP1;ratioP1;P1;durP2;ratioP2;P2;SDS_P1;SDS_P2;PMS_P1;PMS_P2;Temp;Humidity;BMP_temperature;BMP_pressure;BME280_temperature;BME280_humidity;BME280_pressure;Samples;Min_cycle;Max_cycle;Signal;HPM_P1;HPM_P2
2022/03/20 00:02:19;;;;;;;24.50;9.70;;;;;;;;;;5014193;28;20905;-77
2022/03/20 00:04:49;;;;;;;25.60;9.80;;;;;;;;;;5015225;28;20912;-77
2022/03/20 00:07:19;;;;;;;28.17;10.77;;;;;;;;;;5014021;28;20415;-77
2022/03/20 00:09:46;;;;;;;27.20;9.53;;;;;;;;;;5025335;28;21111;-73
2022/03/20 00:12:12;;;;;;;21.27;8.27;;;;;;;;;;5013989;28;20459;-73
2022/03/20 00:14:38;;;;;;;30.47;10.13;;;;;;;;;;5024241;28;20435;-73
2022/03/20 00:17:04;;;;;;;29.50;10.03;;;;;;;;;;5020263;28;20946;-73
2022/03/20 00:19:32;;;;;;;21.93;10.17;;;;;;;;;;5031286;28;20961;-73
2022/03/20 00:21:58;;;;;;;21.13;8.70;;;;;;;;;;5034522;28;20513;-73
2022/03/20 00:24:24;;;;;;;21.43;7.90;;;;;;;;;;5034982;28;20462;-73
2022/03/20 00:26:56;;;;;;;26.23;8.70;;;;;;;;;;5040839;28;20905;-73
2022/03/20 00:29:24;;;;;;;21.20;9.57;;;;;;;;;;5043460;28;20461;-73
2022/03/20 00:31:50;;;;;;;18.73;8.60;;;;;;;;;;5032832;28;20434;-74
2022/03/20 00:34:16;;;;;;;24.33;9.40;;;;;;;;;;5032672;28;20788;-73
2022/03/20 00:36:42;;;;;;;29.10;10.03;;;;;;;;;;5032932;28;20441;-73
2022/03/20 00:39:08;;;;;;;27.80;9.80;;;;;;;;;;5033564;28;20957;-73
2022/03/20 00:41:34;;;;;;;25.77;9.00;;;;;;;;;;5035642;28;21064;-73
2022/03/20 00:44:00;;;;;;;29.60;10.50;;;;;;;;;;5042096;28;20421;-73
2022/03/20 00:46:27;;;;;;;32.87;10.57;;;;;;;;;;5034126;28;20414;-73
2022/03/20 00:48:53;;;;;;;21.60;9.00;;;;;;;;;;5032569;28;20785;-73
2022/03/20 00:51:20;;;;;;;29.73;9.50;;;;;;;;;;5016247;28;20863;-73
2022/03/20 00:53:46;;;;;;;19.23;7.60;;;;;;;;;;5033558;28;20771;-73
2022/03/20 00:56:15;;;;;;;26.70;9.80;;;;;;;;;;5034085;28;20451;-73
2022/03/20 00:58:42;;;;;;;26.00;9.50;;;;;;;;;;5034327;28;20427;-73
2022/03/20 01:01:10;;;;;;;32.93;9.70;;;;;;;;;;5034247;28;20467;-73
2022/03/20 01:03:38;;;;;;;17.97;7.70;;;;;;;;;;5035571;28;20415;-73
2022/03/20 01:06:06;;;;;;;23.93;9.30;;;;;;;;;;5034292;28;21069;-73
2022/03/20 01:08:43;;;;;;;20.25;8.50;;;;;;;;;;5037718;28;20435;-77
2022/03/20 01:11:30;;;;;;;33.65;10.15;;;4.20;1.00;;;;;;5036443;28;20179;-77
2022/03/20 01:13:56;;;;;;;23.88;9.57;;;;;;;;;;5046538;28;20188;-78
2022/03/20 01:16:31;;;;;;;18.50;8.73;;;;;;;;;;5035758;28;20624;-77
2022/03/20 01:18:57;;;;;;;28.13;10.77;;;;;;;;;;5032854;28;20430;-77
2022/03/20 01:21:25;;;;;;;20.80;9.23;;;;;;;;;;5038085;28;20497;-78
2022/03/20 01:23:51;;;;;;;34.15;10.27;;;;;;;;;;5037121;28;20891;-73
2022/03/20 01:26:17;;;;;;;27.30;10.30;;;;;;;;;;5040879;28;20187;-73
2022/03/20 01:28:43;;;;;;;39.72;14.43;;;;;;;;;;5033171;28;20645;-73
2022/03/20 01:31:10;;;;;;;38.38;14.07;;;;;;;;;;5043493;28;20180;-73
2022/03/20 01:33:36;;;;;;;26.58;10.35;;;;;;;;;;5033061;28;20187;-74
2022/03/20 01:36:02;;;;;;;23.05;8.90;;;;;;;;;;5033835;28;20180;-73
2022/03/20 01:38:28;;;;;;;23.60;9.25;;;;;;;;;;5032726;28;20213;-77
2022/03/20 01:40:55;;;;;;;30.85;13.45;;;;;;;;;;5033731;28;20246;-77
2022/03/20 01:43:25;;;;;;;35.83;14.18;;;;;;;;;;5036168;28;20612;-77
2022/03/20 01:45:55;;;;;;;35.70;14.02;;;;;;;;;;5045760;28;20649;-77
2022/03/20 01:48:31;;;;;;;34.22;13.48;;;;;;;;;;5036666;28;20597;-77
2022/03/20 01:51:01;;;;;;;25.70;12.57;;;;;;;;;;5027249;28;20275;-77
2022/03/20 01:53:28;;;;;;;36.38;14.32;;;;;;;;;;5036940;28;20169;-77
2022/03/20 01:55:56;;;;;;;27.67;11.45;;;;;;;;;;5036288;28;20622;-78
2022/03/20 01:58:32;;;;;;;28.45;12.75;;;;;;;;;;5037194;28;20271;-77
2022/03/20 02:01:02;;;;;;;26.48;12.45;;;3.20;1.00;;;;;;5036046;28;20294;-78
2022/03/20 02:03:29;;;;;;;28.67;13.55;;;3.20;1.00;;;;;;5021598;28;20168;-77
2022/03/20 02:06:07;;;;;;;32.15;13.38;;;;;;;;;;5037873;28;20164;-77
2022/03/20 02:08:36;;;;;;;26.48;12.00;;;;;;;;;;5016603;28;20628;-73
2022/03/20 02:11:02;;;;;;;35.72;13.07;;;;;;;;;;5035319;28;20189;-73
2022/03/20 02:13:28;;;;;;;24.92;11.90;;;;;;;;;;5041373;28;20175;-73
2022/03/20 02:15:54;;;;;;;31.33;12.60;;;;;;;;;;5040553;28;20181;-73
2022/03/20 02:18:20;;;;;;;26.33;13.15;;;;;;;;;;5021773;28;20225;-73
2022/03/20 02:20:47;;;;;;;31.23;12.98;;;;;;;;;;5040179;28;20207;-73
2022/03/20 02:23:13;;;;;;;30.27;12.77;;;;;;;;;;5036870;28;20218;-73
2022/03/20 02:25:50;;;;;;;29.02;11.90;;;;;;;;;;5035954;28;20183;-73
2022/03/20 02:28:16;;;;;;;27.23;12.80;;;;;;;;;;5044639;28;20222;-73
2022/03/20 02:30:43;;;;;;;25.05;12.57;;;;;;;;;;5035551;28;20177;-73
2022/03/20 02:33:09;;;;;;;34.07;13.70;;;;;;;;;;5036250;28;20242;-73
2022/03/20 02:35:36;;;;;;;32.15;13.32;;;;;;;;;;5035482;28;20925;-73
2022/03/20 02:38:02;;;;;;;28.10;11.77;;;2.90;1.00;;;;;;5042045;28;20184;-73
2022/03/20 02:40:31;;;;;;;27.17;13.20;;;;;;;;;;5035666;28;20200;-78
2022/03/20 02:43:07;;;;;;;29.60;13.57;;;;;;;;;;5051648;28;20640;-78
2022/03/20 02:45:43;;;;;;;29.40;13.07;;;;;;;;;;5049476;28;20176;-77
2022/03/20 02:48:10;;;;;;;27.30;12.82;;;;;;;;;;5034994;28;20183;-77
2022/03/20 02:50:49;;;;;;;26.88;13.70;;;;;;;;;;5035339;28;20653;-78
2022/03/20 02:53:15;;;;;;;28.27;13.38;;;;;;;;;;4997295;28;20181;-78
2022/03/20 02:55:45;;;;;;;35.40;14.00;;;2.60;1.00;;;;;;5024960;28;20660;-73
2022/03/20 02:58:12;;;;;;;36.08;13.95;;;;;;;;;;5038913;28;20192;-73
2022/03/20 03:00:40;;;;;;;27.05;12.40;;;;;;;;;;5034869;28;20693;-73
2022/03/20 03:03:08;;;;;;;26.92;12.05;;;2.60;1.00;;;;;;5031537;28;20176;-73
2022/03/20 03:05:34;;;;;;;26.15;13.45;;;;;;;;;;5034993;28;20212;-73
2022/03/20 03:10:56;;;;;;;43.33;14.07;;;;;;;;;;5037967;28;20233;-73
2022/03/20 03:13:30;;;;;;;25.10;13.07;;;;;;;;;;5024648;28;20206;-73
2022/03/20 03:15:58;;;;;;;31.25;12.88;;;;;;;;;;5036894;28;20188;-73
2022/03/20 03:18:24;;;;;;;31.33;13.35;;;;;;;;;;5034415;28;20231;-73
2022/03/20 03:20:50;;;;;;;28.85;13.05;;;;;;;;;;5035776;28;20276;-73
2022/03/20 03:23:17;;;;;;;33.90;14.45;;;2.40;1.00;;;;;;5034596;28;20214;-73
2022/03/20 03:25:44;;;;;;;33.75;13.60;;;;;;;;;;5043359;28;20189;-73
2022/03/20 03:28:11;;;;;;;33.22;13.50;;;;;;;;;;5034185;28;20219;-73
2022/03/20 03:30:47;;;;;;;35.15;14.02;;;2.40;1.00;;;;;;5041614;28;20307;-73
2022/03/20 03:33:18;;;;;;;33.30;13.48;;;2.30;1.00;;;;;;5034748;28;20199;-73
2022/03/20 03:35:53;;;;;;;29.60;13.60;;;2.30;1.00;;;;;;5040627;28;20246;-73
2022/03/20 03:38:21;;;;;;;33.20;14.85;;;;;;;;;;5034244;28;20180;-73
2022/03/20 03:40:48;;;;;;;33.67;13.77;;;2.20;1.00;;;;;;5034356;28;20226;-73
2022/03/20 03:43:15;;;;;;;29.77;13.50;;;;;;;;;;5033817;28;20664;-73
2022/03/20 03:45:42;;;;;;;29.35;14.88;;;2.10;1.00;;;;;;5040803;28;20242;-73
2022/03/20 03:48:08;;;;;;;25.52;13.40;;;;;;;;;;5033828;28;20180;-73
2022/03/20 03:50:36;;;;;;;33.58;14.23;;;;;;;;;;5033918;28;20191;-73
2022/03/20 03:53:03;;;;;;;32.95;14.68;;;;;;;;;;5033966;28;20511;-73
2022/03/20 03:55:30;;;;;;;28.10;13.40;;;2.10;1.00;;;;;;5035281;28;20173;-77
2022/03/20 03:58:07;;;;;;;32.97;15.15;;;;;;;;;;5033964;28;20160;-77
2022/03/20 04:01:06;;;;;;;28.67;14.10;;;2.00;1.00;;;;;;5037171;28;20214;-78
2022/03/20 04:03:49;;;;;;;29.85;15.80;;;;;;;;;;5019984;28;20519;-77
2022/03/20 04:06:19;;;;;;;29.92;15.00;;;;;;;;;;5033196;28;20192;-77
2022/03/20 04:08:49;;;;;;;33.40;16.25;;;;;;;;;;5035313;28;20661;-77
2022/03/20 04:11:15;;;;;;;31.05;14.52;;;;;;;;;;5016312;28;20287;-77
2022/03/20 04:13:41;;;;;;;36.25;14.98;;;;;;;;;;5033945;28;20180;-77
2022/03/20 04:16:42;;;;;;;26.50;13.77;;;2.50;1.00;;;;;;5033764;28;20523;-78
2022/03/20 04:19:09;;;;;;;30.50;14.30;;;;;;;;;;5034515;28;20192;-78
2022/03/20 04:21:37;;;;;;;29.33;14.43;;;;;;;;;;5040779;28;20274;-77
2022/03/20 04:24:04;;;;;;;33.00;15.52;;;;;;;;;;5037935;28;20176;-78
2022/03/20 04:26:32;;;;;;;33.33;15.90;;;;;;;;;;5040352;28;20171;-77
2022/03/20 04:29:07;;;;;;;32.58;13.85;;;;;;;;;;5019643;28;20680;-78
2022/03/20 04:31:33;;;;;;;33.03;14.50;;;;;;;;;;5040110;28;20662;-77
2022/03/20 04:33:59;;;;;;;30.55;14.90;;;;;;;;;;5036098;28;20204;-77
2022/03/20 04:36:27;;;;;;;32.55;14.55;;;3.40;1.00;;;;;;5035720;28;20167;-78
2022/03/20 04:38:56;;;;;;;31.75;13.88;;;;;;;;;;5031174;28;20519;-77
2022/03/20 04:41:31;;;;;;;37.33;11.98;;;;;;;;;;5035348;28;20211;-78
2022/03/20 04:44:18;;;;;;;24.77;11.60;;;3.70;1.00;;;;;;5033426;28;20195;-77
2022/03/20 04:46:45;;;;;;;37.75;12.73;;;;;;;;;;5011066;28;20228;-78
2022/03/20 05:00:11;;;;;;;32.77;9.83;;;;;;;;;;5033848;28;20457;-73
2022/03/20 05:02:38;;;;;;;25.93;10.87;;;;;;;;;;5037757;28;21325;-73
2022/03/20 05:05:04;;;;;;;36.63;11.47;;;;;;;;;;5034092;28;20421;-73
2022/03/20 05:07:30;;;;;;;33.83;11.70;;;;;;;;;;5032854;28;21030;-73
2022/03/20 05:15:36;;;;;;;31.60;12.10;;;;;;;;;;5033526;28;20453;-77
2022/03/20 05:18:07;;;;;;;29.80;11.57;;;4.50;1.00;;;;;;5035967;28;20427;-77
2022/03/20 05:20:34;;;;;;;23.40;10.27;;;;;;;;;;5036039;28;20466;-78
2022/03/20 05:23:07;;;;;;;30.90;12.30;;;;;;;;;;5015383;28;20977;-77
2022/03/20 05:25:33;;;;;;;32.90;11.73;;;;;;;;;;5017809;28;20928;-73
2022/03/20 05:27:59;;;;;;;37.63;13.40;;;;;;;;;;5016395;28;20769;-73
2022/03/20 05:30:26;;;;;;;30.97;12.07;;;;;;;;;;5018990;28;20427;-73
2022/03/20 05:32:52;;;;;;;40.47;12.23;;;;;;;;;;5015395;28;20454;-73
2022/03/20 05:35:18;;;;;;;28.50;11.23;;;;;;;;;;5017918;28;20824;-73
2022/03/20 05:37:45;;;;;;;38.87;12.40;;;;;;;;;;5016618;28;20416;-73
2022/03/20 05:40:11;;;;;;;28.40;11.87;;;;;;;;;;5017742;28;20482;-73
2022/03/20 05:42:37;;;;;;;28.17;11.70;;;;;;;;;;5016456;28;20475;-73
2022/03/20 05:45:04;;;;;;;30.70;11.23;;;;;;;;;;5018395;28;20825;-74
2022/03/20 05:47:33;;;;;;;32.77;12.60;;;;;;;;;;5016098;28;20427;-73
2022/03/20 05:50:01;;;;;;;30.67;11.50;;;;;;;;;;5017623;28;20789;-73
2022/03/20 05:52:30;;;;;;;36.37;11.70;;;4.50;1.00;;;;;;5015890;28;20443;-73
2022/03/20 05:54:57;;;;;;;37.10;12.20;;;;;;;;;;5022714;28;20904;-74
2022/03/20 06:00:16;;;;;;;29.77;12.63;;;;;;;;;;5020576;28;20474;-73
2022/03/20 06:02:45;;;;;;;33.20;12.73;;;;;;;;;;5006646;28;20446;-73
2022/03/20 06:05:13;;;;;;;26.93;11.33;;;;;;;;;;5017232;28;20844;-73
2022/03/20 06:07:44;;;;;;;33.83;12.67;;;4.60;1.00;;;;;;5022297;28;20420;-73
2022/03/20 06:10:11;;;;;;;26.03;11.07;;;4.70;1.00;;;;;;5016283;28;20566;-73
2022/03/20 06:12:38;;;;;;;30.53;11.07;;;;;;;;;;5019889;28;20860;-78
2022/03/20 06:15:04;;;;;;;41.73;12.70;;;;;;;;;;5033314;28;20904;-77
2022/03/20 06:17:38;;;;;;;31.83;11.70;;;;;;;;;;5016302;28;20487;-77
2022/03/20 06:20:06;;;;;;;33.43;12.50;;;4.80;1.00;;;;;;5027135;28;20477;-77
2022/03/20 06:22:44;;;;;;;34.40;12.00;;;5.00;1.00;;;;;;5036812;28;21001;-77
2022/03/20 06:25:15;;;;;;;34.73;12.27;;;;;;;;;;5036642;28;20755;-77
2022/03/20 06:27:45;;;;;;;35.03;12.33;;;;;;;;;;5038140;28;20422;-73
2022/03/20 06:30:13;;;;;;;39.20;12.60;;;5.20;1.00;;;;;;5022096;28;20415;-73
2022/03/20 06:32:39;;;;;;;34.30;13.27;;;;;;;;;;5035918;28;20520;-73
2022/03/20 06:35:06;;;;;;;25.53;11.73;;;;;;;;;;5035417;28;20480;-73
2022/03/20 06:37:36;;;;;;;37.87;13.20;;;;;;;;;;5036275;28;20419;-73
2022/03/20 06:40:02;;;;;;;36.33;13.10;;;;;;;;;;5035430;28;20502;-73
2022/03/20 06:42:28;;;;;;;30.50;11.70;;;5.60;1.00;;;;;;5043446;28;20458;-77
2022/03/20 06:44:55;;;;;;;39.53;14.03;;;;;;;;;;5038847;28;20453;-78
2022/03/20 06:47:23;;;;;;;28.73;11.90;;;;;;;;;;5043570;28;20977;-79
2022/03/20 06:49:55;;;;;;;35.03;12.30;;;;;;;;;;5017718;28;20423;-78
2022/03/20 06:52:28;;;;;;;27.75;11.38;;;;;;;;;;5035434;28;20419;-87
2022/03/20 06:55:13;;;;;;;28.60;12.93;;;6.00;1.00;;;;;;5038224;28;20279;-87
2022/03/20 06:58:06;;;;;;;28.03;11.83;;;6.10;1.00;;;;;;5006818;28;20426;-81
2022/03/20 07:00:33;;;;;;;31.93;11.93;;;;;;;;;;5023925;28;20458;-82
2022/03/20 07:03:06;;;;;;;25.13;12.40;;;;;;;;;;5035017;28;20411;-81
2022/03/20 07:05:37;;;;;;;28.83;12.17;;;;;;;;;;5017178;28;20422;-81
2022/03/20 07:08:07;;;;;;;31.23;12.60;;;;;;;;;;5035139;28;20749;-81
2022/03/20 07:10:33;;;;;;;34.93;13.63;;;;;;;;;;5031378;28;20434;-74
2022/03/20 07:15:45;;;;;;;40.00;14.20;;;;;;;;;;5034521;28;20445;-74
2022/03/20 07:18:15;;;;;;;40.90;14.37;;;6.70;1.00;;;;;;5035572;28;20447;-73
2022/03/20 07:20:43;;;;;;;35.57;14.10;;;;;;;;;;5034466;28;20493;-77
2022/03/20 07:23:09;;;;;;;34.37;14.27;;;;;;;;;;5036824;28;20415;-78
2022/03/20 07:31:16;;;;;;;36.73;14.93;;;;;;;;;;5030892;28;20804;-77
2022/03/20 07:33:42;;;;;;;45.63;16.70;;;;;;;;;;5034733;28;20435;-78
2022/03/20 07:36:13;;;;;;;40.83;14.67;;;;;;;;;;5034445;28;20411;-77
2022/03/20 07:38:39;;;;;;;37.40;15.77;;;;;;;;;;5034369;28;20413;-78
2022/03/20 07:41:07;;;;;;;35.63;15.57;;;;;;;;;;5034270;28;20462;-78
2022/03/20 07:43:37;;;;;;;38.87;16.90;;;;;;;;;;5044366;28;20423;-78
2022/03/20 07:46:04;;;;;;;51.17;17.60;;;;;;;;;;5034015;28;20895;-75
2022/03/20 07:48:30;;;;;;;39.93;17.13;;;;;;;;;;5034034;28;20423;-77
2022/03/20 07:51:01;;;;;;;38.77;15.57;;;;;;;;;;5034115;28;20773;-78
2022/03/20 07:53:27;;;;;;;34.10;15.80;;;;;;;;;;5035411;28;20430;-78
2022/03/20 07:55:53;;;;;;;44.87;16.70;;;;;;;;;;5016414;28;21064;-78
2022/03/20 07:58:20;;;;;;;40.70;16.50;;;;;;;;;;5034237;28;20478;-74
2022/03/20 08:00:47;;;;;;;38.13;16.00;;;9.10;99.90;;;;;;5033845;28;20810;-74
2022/03/20 08:03:13;;;;;;;40.63;15.83;;;;;;;;;;5033301;28;20950;-74
2022/03/20 08:05:39;;;;;;;42.40;17.30;;;;;;;;;;5030837;28;20469;-74
2022/03/20 08:08:07;;;;;;;45.47;17.40;;;;;;;;;;5040196;28;20957;-74
2022/03/20 08:10:33;;;;;;;38.57;16.80;;;;;;;;;;5047901;28;20426;-74
2022/03/20 08:12:59;;;;;;;38.77;16.33;;;;;;;;;;5039943;28;20422;-77
2022/03/20 08:15:31;;;;;;;39.33;17.10;;;;;;;;;;5033890;28;21005;-77
2022/03/20 08:17:57;;;;;;;42.27;17.03;;;;;;;;;;5051413;28;20786;-77
2022/03/20 08:20:25;;;;;;;39.03;17.10;;;;;;;;;;5035871;28;20470;-77
2022/03/20 08:22:52;;;;;;;54.47;19.67;;;;;;;;;;5033647;28;20410;-78
2022/03/20 08:25:19;;;;;;;33.87;16.07;;;;;;;;;;5043155;28;20410;-78
2022/03/20 08:27:50;;;;;;;35.90;14.67;;;9.50;99.90;;;;;;5040710;28;20521;-77
2022/03/20 08:30:17;;;;;;;49.07;17.30;;;;;;;;;;5044997;28;20421;-77
2022/03/20 08:32:44;;;;;;;44.63;17.03;;;9.60;99.90;;;;;;5037696;28;20483;-78
2022/03/20 08:35:14;;;;;;;38.50;18.00;;;;;;;;;;5026235;28;20896;-77
2022/03/20 08:37:44;;;;;;;41.23;17.53;;;9.60;99.90;;;;;;5033306;28;20477;-78
2022/03/20 08:40:17;;;;;;;39.73;17.10;;;9.70;99.90;;;;;;5033375;28;20954;-78
2022/03/20 08:42:52;;;;;;;68.97;17.70;;;;;;;;;;5033350;28;20467;-77
2022/03/20 08:45:20;;;;;;;37.53;16.70;;;;;;;;;;5014570;28;20804;-78
2022/03/20 08:47:46;;;;;;;34.73;16.30;;;;;;;;;;5038128;28;20513;-78
2022/03/20 08:50:14;;;;;;;41.03;17.33;;;10.10;99.90;;;;;;5016227;28;20499;-78
2022/03/20 08:52:40;;;;;;;40.97;17.13;;;;;;;;;;5033771;28;20520;-78
2022/03/20 08:55:10;;;;;;;46.20;17.90;;;;;;;;;;5036365;28;20414;-77
2022/03/20 08:57:38;;;;;;;39.00;15.47;;;10.20;99.90;;;;;;5037294;28;20422;-74
2022/03/20 09:00:04;;;;;;;36.23;16.90;;;;;;;;;;5014996;28;20466;-74
2022/03/20 09:02:30;;;;;;;36.80;16.40;;;;;;;;;;5032522;28;20958;-73
2022/03/20 09:04:57;;;;;;;46.10;17.60;;;;;;;;;;5032259;28;20426;-74
2022/03/20 09:07:23;;;;;;;41.77;16.30;;;;;;;;;;5032449;28;20415;-74
2022/03/20 09:09:49;;;;;;;40.03;16.93;;;;;;;;;;5031757;28;20427;-74
2022/03/20 09:12:15;;;;;;;48.63;17.40;;;;;;;;;;5032513;28;20480;-74
2022/03/20 09:14:41;;;;;;;40.00;17.43;;;;;;;;;;5032330;28;20510;-74
2022/03/20 09:19:55;;;;;;;73.43;21.77;;;;;;;;;;5025026;28;20469;-74
2022/03/20 09:25:43;;;;;;;39.40;16.60;;;;;;;;;;5037820;28;20502;-74
2022/03/20 09:28:10;;;;;;;36.33;17.30;;;;;;;;;;5038010;28;20418;-74
2022/03/20 09:30:38;;;;;;;42.67;17.17;;;11.10;99.90;;;;;;5034323;28;20472;-74
2022/03/20 09:33:05;;;;;;;36.40;17.13;;;;;;;;;;5034335;28;20431;-74
2022/03/20 09:35:32;;;;;;;38.33;16.63;;;11.40;99.90;;;;;;5032326;28;20390;-74
2022/03/20 09:37:59;;;;;;;40.30;17.30;;;;;;;;;;5031736;28;20433;-73
2022/03/20 09:40:25;;;;;;;47.07;18.27;;;;;;;;;;5032033;28;20493;-73
2022/03/20 09:42:51;;;;;;;39.80;17.63;;;;;;;;;;5031570;28;20481;-73
2022/03/20 09:45:19;;;;;;;37.03;16.93;;;12.00;99.90;;;;;;5032675;28;20435;-72
2022/03/20 09:47:45;;;;;;;45.57;18.67;;;;;;;;;;5032323;28;20476;-72
2022/03/20 09:50:13;;;;;;;46.33;18.07;;;12.20;99.90;;;;;;5036630;28;20489;-72
2022/03/20 09:52:39;;;;;;;41.30;18.17;;;;;;;;;;5032405;28;20414;-73
2022/03/20 09:55:07;;;;;;;36.73;16.00;;;12.50;99.90;;;;;;5031966;28;20938;-72
2022/03/20 09:57:33;;;;;;;39.73;18.40;;;;;;;;;;5032487;28;20422;-72
2022/03/20 10:00:04;;;;;;;46.27;17.63;;;;;;;;;;5032846;28;20455;-73
2022/03/20 10:02:31;;;;;;;53.80;18.57;;;;;;;;;;5032500;28;20382;-72
2022/03/20 10:04:57;;;;;;;51.07;19.33;;;;;;;;;;5017734;28;20779;-72
2022/03/20 10:07:25;;;;;;;51.53;18.33;;;12.50;99.90;;;;;;5048825;28;20410;-73
2022/03/20 10:10:17;;;;;;;38.23;17.47;;;12.80;99.90;;;;;;5035874;28;20415;-72
2022/03/20 10:12:49;;;;;;;50.30;18.10;;;13.00;99.90;;;;;;5034030;28;20406;-73
2022/03/20 10:15:35;;;;;;;53.20;18.63;;;;;;;;;;5021977;28;22512;-75
2022/03/20 10:18:06;;;;;;;49.90;19.60;;;;;;;;;;5026817;28;20413;-76
2022/03/20 10:20:38;;;;;;;53.73;19.30;;;13.80;99.90;;;;;;5016579;28;20450;-76
2022/03/20 10:23:18;;;;;;;47.27;17.33;;;14.00;99.90;;;;;;5005404;28;20430;-76
2022/03/20 10:25:51;;;;;;;39.47;17.10;;;;;;;;;;5002870;28;20772;-77
2022/03/20 10:28:17;;;;;;;38.63;16.77;;;;;;;;;;5008992;28;20457;-77
2022/03/20 10:30:55;;;;;;;44.03;17.40;;;;;;;;;;4994807;28;22312;-75
2022/03/20 10:33:21;;;;;;;33.70;16.97;;;;;;;;;;5012569;28;20454;-75
2022/03/20 10:36:17;;;;;;;41.67;17.63;;;14.80;99.90;;;;;;5010160;28;20417;-75
2022/03/20 10:38:45;;;;;;;56.50;19.23;;;14.70;99.90;;;;;;5011369;28;20447;-75
2022/03/20 10:41:26;;;;;;;40.13;18.10;;;14.50;99.90;;;;;;5013992;28;20467;-74
2022/03/20 10:43:54;;;;;;;48.27;18.90;;;14.60;99.90;;;;;;5020492;28;20420;-74
2022/03/20 10:46:31;;;;;;;64.90;20.33;;;14.60;99.90;;;;;;5007977;28;20416;-75
2022/03/20 10:49:05;;;;;;;44.37;17.63;;;14.60;99.90;;;;;;5015786;28;20497;-75
2022/03/20 10:51:38;;;;;;;39.83;17.63;;;;;;;;;;5012716;28;20936;-77
2022/03/20 10:54:12;;;;;;;43.27;18.00;;;14.50;99.90;;;;;;5006039;28;20440;-75
2022/03/20 10:56:58;;;;;;;48.00;19.00;;;14.40;99.90;;;;;;5007877;28;20417;-74
2022/03/20 10:59:25;;;;;;;40.70;16.60;;;;;;;;;;5007247;28;20410;-76
2022/03/20 11:01:52;;;;;;;217.77;30.33;;;;;;;;;;4995956;28;20936;-78
2022/03/20 11:04:23;;;;;;;35.93;17.03;;;;;;;;;;5007096;28;20449;-79
2022/03/20 11:06:51;;;;;;;37.23;15.90;;;14.70;99.90;;;;;;5019561;28;20429;-79
2022/03/20 11:09:18;;;;;;;64.50;19.93;;;;;;;;;;5005935;28;20452;-80
2022/03/20 11:11:58;;;;;;;72.37;20.43;;;14.90;99.90;;;;;;5002357;28;20472;-79
2022/03/20 11:14:25;;;;;;;65.73;20.50;;;;;;;;;;5015577;28;20435;-83
2022/03/20 11:20:02;;;;;;;38.50;16.77;;;15.00;99.90;;;;;;5013148;28;20448;-79
2022/03/20 11:22:29;;;;;;;33.63;15.90;;;15.10;99.90;;;;;;5031230;28;20763;-82
2022/03/20 11:28:36;;;;;;;61.97;20.13;;;;;;;;;;5025634;28;20966;-81
2022/03/20 11:31:02;;;;;;;49.33;18.73;;;;;;;;;;5023731;28;20882;-74
2022/03/20 11:33:29;;;;;;;36.53;16.80;;;;;;;;;;5031442;28;20421;-74
2022/03/20 11:35:55;;;;;;;69.27;20.43;;;;;;;;;;5032304;28;20954;-74
2022/03/20 11:38:25;;;;;;;40.10;17.47;;;;;;;;;;5033037;28;20405;-74
2022/03/20 11:41:12;;;;;;;39.43;17.27;;;16.10;99.90;;;;;;5016095;28;20460;-73
2022/03/20 11:43:44;;;;;;;46.10;15.17;;;15.90;99.90;;;;;;5039201;28;20886;-74
2022/03/20 11:46:28;;;;;;;59.30;18.03;;;15.90;99.90;;;;;;5042780;28;20411;-74
2022/03/20 11:49:20;;;;;;;37.73;15.60;;;16.00;99.90;;;;;;5034261;28;20831;-73
2022/03/20 11:51:51;;;;;;;49.87;17.00;;;;;;;;;;5038743;28;20517;-73
2022/03/20 11:54:18;;;;;;;43.30;17.23;;;;;;;;;;5043416;28;20419;-73
2022/03/20 11:56:44;;;;;;;33.70;15.20;;;;;;;;;;5034566;28;20432;-73
2022/03/20 11:59:44;;;;;;;53.50;16.93;;;16.10;99.90;;;;;;5021205;28;20715;-74
2022/03/20 12:02:15;;;;;;;38.60;15.47;;;;;;;;;;5024602;28;20431;-78
2022/03/20 12:05:20;;;;;;;34.20;14.00;;;16.10;99.90;;;;;;5038776;28;20891;-78
2022/03/20 12:07:54;;;;;;;34.30;13.07;;;;;;;;;;5046034;28;20412;-78
2022/03/20 12:10:44;;;;;;;38.30;14.43;;;16.00;99.90;;;;;;5033948;28;20360;-77
2022/03/20 12:13:16;;;;;;;28.73;13.00;;;;;;;;;;5034020;28;20769;-75
2022/03/20 12:15:45;;;;;;;21.30;11.07;;;;;;;;;;5034211;28;20499;-87
2022/03/20 12:18:13;;;;;;;22.10;10.60;;;;;;;;;;5016478;28;20431;-88
2022/03/20 12:20:55;;;;;;;23.20;10.90;;;15.40;99.90;;;;;;5033847;28;20795;-82
2022/03/20 12:23:31;;;;;;;22.47;11.77;;;;;;;;;;5033785;28;20775;-82
2022/03/20 12:26:31;;;;;;;29.87;11.77;;;15.30;99.90;;;;;;5033639;28;20950;-83
2022/03/20 12:29:32;;;;;;;36.70;12.33;;;15.40;99.90;;;;;;4934477;29;20430;-85
2022/03/20 12:32:49;;;;;;;29.93;12.13;;;15.70;99.90;;;;;;4934689;29;20523;-79
2022/03/20 12:35:19;;;;;;;29.30;12.43;;;;;;;;;;4923891;29;20397;-77
2022/03/20 12:37:48;;;;;;;31.30;12.20;;;;;;;;;;4930255;29;20421;-75
2022/03/20 12:40:30;;;;;;;41.93;14.63;;;16.60;99.90;;;;;;4935701;29;20495;-74
2022/03/20 12:43:09;;;;;;;44.73;14.27;;;;;;;;;;4937494;29;20428;-69
2022/03/20 12:45:40;;;;;;;53.63;15.13;;;;;;;;;;4935253;29;21156;-75
2022/03/20 12:48:08;;;;;;;35.73;13.00;;;17.10;99.90;;;;;;4932318;29;20434;-76
2022/03/20 12:50:38;;;;;;;51.40;15.60;;;17.50;99.90;;;;;;4933952;29;20416;-77
2022/03/20 12:53:07;;;;;;;60.23;16.37;;;;;;;;;;4935129;29;20878;-75
2022/03/20 12:55:34;;;;;;;36.67;14.30;;;;;;;;;;4942246;29;20517;-75
2022/03/20 12:58:00;;;;;;;44.93;14.60;;;;;;;;;;4933445;29;20420;-75
2022/03/20 13:00:30;;;;;;;36.67;13.60;;;;;;;;;;4938893;29;20496;-75
2022/03/20 13:03:00;;;;;;;27.27;13.50;;;17.70;99.90;;;;;;4934481;29;20410;-76
2022/03/20 13:05:28;;;;;;;29.90;13.83;;;17.80;99.90;;;;;;4991913;28;20437;-76
2022/03/20 13:07:55;;;;;;;30.67;13.07;;;;;;;;;;5038212;28;20423;-76
2022/03/20 13:10:23;;;;;;;75.33;16.43;;;;;;;;;;5033253;28;20440;-75
2022/03/20 13:12:51;;;;;;;47.07;14.33;;;;;;;;;;5017946;28;20429;-75
2022/03/20 13:15:53;;;;;;;51.87;15.33;;;17.60;99.90;;;;;;5014562;28;20773;-75
2022/03/20 13:18:27;;;;;;;60.27;13.90;;;17.70;99.90;;;;;;5029607;28;20432;-75
2022/03/20 13:20:53;;;;;;;61.23;15.57;;;;;;;;;;5041944;28;20497;-75
2022/03/20 13:23:22;;;;;;;57.13;14.67;;;17.70;99.90;;;;;;5035960;28;20578;-75
2022/03/20 13:25:51;;;;;;;40.43;13.03;;;17.70;99.90;;;;;;5025641;28;20441;-76
2022/03/20 13:28:25;;;;;;;68.07;14.50;;;17.70;99.90;;;;;;5031007;28;20488;-76
2022/03/20 13:30:51;;;;;;;23.37;8.40;;;;;;;;;;5034736;28;21023;-76
2022/03/20 13:33:26;;;;;;;27.63;9.70;;;;;;;;;;5033614;28;20721;-75
2022/03/20 13:35:54;;;;;;;21.53;9.00;;;17.70;99.90;;;;;;5032209;28;20512;-75
2022/03/20 13:38:20;;;;;;;25.90;9.77;;;;;;;;;;5034006;28;20437;-75
2022/03/20 13:40:46;;;;;;;27.13;9.40;;;;;;;;;;5036483;28;20453;-75
2022/03/20 13:43:22;;;;;;;31.23;8.30;;;17.50;99.90;;;;;;5037053;28;20785;-74
2022/03/20 13:45:48;;;;;;;26.27;8.43;;;;;;;;;;5036153;28;20433;-75
2022/03/20 13:48:17;;;;;;;19.30;8.73;;;;;;;;;;5036505;28;20500;-75
2022/03/20 13:50:44;;;;;;;34.17;9.50;;;;;;;;;;5039731;28;20561;-75
2022/03/20 13:53:10;;;;;;;20.13;8.70;;;;;;;;;;5036062;28;20475;-75
2022/03/20 13:55:38;;;;;;;41.50;10.40;;;;;;;;;;5045070;28;20439;-74
2022/03/20 13:58:06;;;;;;;29.73;8.87;;;;;;;;;;5018306;28;20462;-74
2022/03/20 14:00:35;;;;;;;21.83;7.83;;;;;;;;;;5036196;28;21022;-76
2022/03/20 14:03:03;;;;;;;19.77;8.53;;;17.70;99.90;;;;;;5040412;28;20417;-76
2022/03/20 14:05:31;;;;;;;38.73;8.83;;;17.70;99.90;;;;;;5035797;28;20420;-75
2022/03/20 14:08:19;;;;;;;18.70;8.10;;;;;;;;;;5036014;28;20385;-74
2022/03/20 14:10:46;;;;;;;30.73;8.80;;;;;;;;;;5035623;28;20425;-75
2022/03/20 14:13:44;;;;;;;21.10;8.70;;;17.80;99.90;;;;;;5035829;28;20862;-75
2022/03/20 14:16:14;;;;;;;20.20;7.70;;;17.80;99.90;;;;;;4955598;29;20501;-76
2022/03/20 14:18:43;;;;;;;27.90;9.30;;;;;;;;;;4956093;29;20395;-76
2022/03/20 14:21:21;;;;;;;31.80;8.93;;;17.80;99.90;;;;;;4953934;29;20476;-77
2022/03/20 14:24:08;;;;;;;19.87;8.67;;;17.80;99.90;;;;;;4943766;29;20432;-77
2022/03/20 14:26:35;;;;;;;23.00;7.57;;;;;;;;;;4939145;29;20415;-76
2022/03/20 14:29:08;;;;;;;26.80;8.83;;;;;;;;;;4955678;29;20421;-77
2022/03/20 14:40:14;;;;;;;52.60;9.90;;;17.90;99.90;;;;;;4954543;29;20504;-73
2022/03/20 14:42:40;;;;;;;16.40;6.50;;;;;;;;;;4954732;29;20408;-73
2022/03/20 14:45:09;;;;;;;37.50;8.60;;;18.00;99.90;;;;;;4954379;29;20523;-73
2022/03/20 14:47:36;;;;;;;14.60;6.40;;;;;;;;;;4953706;29;20442;-73
2022/03/20 14:50:07;;;;;;;24.63;6.80;;;;;;;;;;4954617;28;20526;-77
2022/03/20 14:52:34;;;;;;;29.83;8.20;;;;;;;;;;4977299;28;20469;-77
2022/03/20 14:55:04;;;;;;;17.70;6.50;;;;;;;;;;5026905;28;20445;-77
2022/03/20 14:57:31;;;;;;;20.30;7.53;;;;;;;;;;5034957;28;20815;-76
2022/03/20 14:59:57;;;;;;;18.27;6.77;;;;;;;;;;5035255;28;20774;-78